sensor_id;sensor_type;location;lat;lon;timestamp;temperature;humidity
19880;DHT22;10102;50.828;4.416;2022-12-11T00:02:25;4.10;99.90
19880;DHT22;10102;50.828;4.416;2022-12-11T00:04:50;3.90;99.90
19880;DHT22;10102;50.828;4.416;2022-12-11T00:07:16;4.00;99.90
19880;DHT22;10102;50.828;4.416;2022-12-11T00:09:41;5.00;99.90
19880;DHT22;10102;50.828;4.416;2022-12-11T00:12:07;4.00;99.90
19880;DHT22;10102;50.828;4.416;2022-12-11T00:14:33;4.50;99.90
19880;DHT22;10102;50.828;4.416;2022-12-11T00:16:59;4.00;99.90
19880;DHT22;10102;50.828;4.416;2022-12-11T00:19:24;4.00;99.90
19880;DHT22;10102;50.828;4.416;2022-12-11T00:21:50;4.00;99.90
19880;DHT22;10102;50.828;4.416;2022-12-11T00:24:16;4.00;99.90
19880;DHT22;10102;50.828;4.416;2022-12-11T00:26:42;4.70;99.90
19880;DHT22;10102;50.828;4.416;2022-12-11T00:29:09;3.90;99.90
19880;DHT22;10102;50.828;4.416;2022-12-11T00:31:39;4.20;99.90
19880;DHT22;10102;50.828;4.416;2022-12-11T00:34:05;4.10;99.90
19880;DHT22;10102;50.828;4.416;2022-12-11T00:36:31;4.10;99.90
19880;DHT22;10102;50.828;4.416;2022-12-11T00:38:56;4.10;99.90
19880;DHT22;10102;50.828;4.416;2022-12-11T00:41:22;5.20;99.90
19880;DHT22;10102;50.828;4.416;2022-12-11T00:43:47;4.10;99.90
19880;DHT22;10102;50.828;4.416;2022-12-11T00:46:14;4.10;99.90
19880;DHT22;10102;50.828;4.416;2022-12-11T00:48:40;4.00;99.90
19880;DHT22;10102;50.828;4.416;2022-12-11T00:51:05;4.00;99.90
19880;DHT22;10102;50.828;4.416;2022-12-11T00:53:31;4.00;99.90
19880;DHT22;10102;50.828;4.416;2022-12-11T00:55:56;4.20;99.90
19880;DHT22;10102;50.828;4.416;2022-12-11T00:58:22;4.30;99.90
19880;DHT22;10102;50.828;4.416;2022-12-11T01:00:48;4.20;99.90
19880;DHT22;10102;50.828;4.416;2022-12-11T01:03:15;4.60;99.90
19880;DHT22;10102;50.828;4.416;2022-12-11T01:05:49;4.20;99.90
19880;DHT22;10102;50.828;4.416;2022-12-11T01:08:15;4.10;99.90
19880;DHT22;10102;50.828;4.416;2022-12-11T01:10:41;4.10;99.90
19880;DHT22;10102;50.828;4.416;2022-12-11T01:13:06;4.10;99.90
19880;DHT22;10102;50.828;4.416;2022-12-11T01:15:37;4.10;99.90
19880;DHT22;10102;50.828;4.416;2022-12-11T01:18:03;4.20;99.90
19880;DHT22;10102;50.828;4.416;2022-12-11T01:20:29;4.30;99.90
19880;DHT22;10102;50.828;4.416;2022-12-11T01:22:57;4.30;99.90
19880;DHT22;10102;50.828;4.416;2022-12-11T01:25:24;4.40;99.90
19880;DHT22;10102;50.828;4.416;2022-12-11T01:27:50;4.40;99.90
19880;DHT22;10102;50.828;4.416;2022-12-11T01:30:17;4.20;99.90
19880;DHT22;10102;50.828;4.416;2022-12-11T01:32:43;4.20;99.90
19880;DHT22;10102;50.828;4.416;2022-12-11T01:35:11;4.30;99.90
19880;DHT22;10102;50.828;4.416;2022-12-11T01:37:37;4.10;99.90
19880;DHT22;10102;50.828;4.416;2022-12-11T01:40:04;4.90;99.90
19880;DHT22;10102;50.828;4.416;2022-12-11T01:42:30;4.20;99.90
19880;DHT22;10102;50.828;4.416;2022-12-11T01:47:51;4.20;99.90
19880;DHT22;10102;50.828;4.416;2022-12-11T01:50:18;4.20;99.90
19880;DHT22;10102;50.828;4.416;2022-12-11T01:52:46;4.40;99.90
19880;DHT22;10102;50.828;4.416;2022-12-11T01:55:14;4.30;99.90
19880;DHT22;10102;50.828;4.416;2022-12-11T01:57:43;4.30;99.90
19880;DHT22;10102;50.828;4.416;2022-12-11T02:00:10;4.20;99.90
19880;DHT22;10102;50.828;4.416;2022-12-11T02:02:36;4.20;99.90
19880;DHT22;10102;50.828;4.416;2022-12-11T02:05:04;4.20;99.90
19880;DHT22;10102;50.828;4.416;2022-12-11T02:07:55;4.20;99.90
19880;DHT22;10102;50.828;4.416;2022-12-11T02:10:19;5.10;99.90
19880;DHT22;10102;50.828;4.416;2022-12-11T02:12:53;4.30;99.90
19880;DHT22;10102;50.828;4.416;2022-12-11T02:20:24;4.10;99.90
19880;DHT22;10102;50.828;4.416;2022-12-11T02:23:30;4.20;99.90
19880;DHT22;10102;50.828;4.416;2022-12-11T02:26:20;4.10;99.90
19880;DHT22;10102;50.828;4.416;2022-12-11T02:28:58;4.10;99.90
19880;DHT22;10102;50.828;4.416;2022-12-11T02:36:28;4.30;99.90
19880;DHT22;10102;50.828;4.416;2022-12-11T02:38:56;4.40;99.90
19880;DHT22;10102;50.828;4.416;2022-12-11T02:41:23;4.50;99.90
19880;DHT22;10102;50.828;4.416;2022-12-11T02:43:50;4.60;99.90
19880;DHT22;10102;50.828;4.416;2022-12-11T02:46:18;4.50;99.90
19880;DHT22;10102;50.828;4.416;2022-12-11T02:48:47;4.40;99.90
19880;DHT22;10102;50.828;4.416;2022-12-11T02:51:16;4.50;99.90
19880;DHT22;10102;50.828;4.416;2022-12-11T02:53:43;4.20;99.90
19880;DHT22;10102;50.828;4.416;2022-12-11T02:56:17;4.20;99.90
19880;DHT22;10102;50.828;4.416;2022-12-11T02:58:48;5.00;99.90
19880;DHT22;10102;50.828;4.416;2022-12-11T03:01:14;4.20;99.90
19880;DHT22;10102;50.828;4.416;2022-12-11T03:03:40;4.30;99.90
19880;DHT22;10102;50.828;4.416;2022-12-11T03:06:09;4.10;99.90
19880;DHT22;10102;50.828;4.416;2022-12-11T03:08:38;4.10;99.90
19880;DHT22;10102;50.828;4.416;2022-12-11T03:11:04;4.20;99.90
19880;DHT22;10102;50.828;4.416;2022-12-11T03:13:30;4.80;99.90
19880;DHT22;10102;50.828;4.416;2022-12-11T03:16:35;4.30;99.90
19880;DHT22;10102;50.828;4.416;2022-12-11T03:22:02;4.20;99.90
19880;DHT22;10102;50.828;4.416;2022-12-11T03:24:40;4.20;99.90
19880;DHT22;10102;50.828;4.416;2022-12-11T03:30:33;4.40;99.90
19880;DHT22;10102;50.828;4.416;2022-12-11T03:32:54;4.40;99.90
19880;DHT22;10102;50.828;4.416;2022-12-11T03:38:06;4.20;99.90
19880;DHT22;10102;50.828;4.416;2022-12-11T03:40:34;4.10;99.90
19880;DHT22;10102;50.828;4.416;2022-12-11T03:43:01;3.90;99.90
19880;DHT22;10102;50.828;4.416;2022-12-11T03:45:28;3.80;99.90
19880;DHT22;10102;50.828;4.416;2022-12-11T03:47:56;3.90;99.90
19880;DHT22;10102;50.828;4.416;2022-12-11T03:50:23;3.80;99.90
19880;DHT22;10102;50.828;4.416;2022-12-11T03:52:51;3.80;99.90
19880;DHT22;10102;50.828;4.416;2022-12-11T03:55:20;3.90;99.90
19880;DHT22;10102;50.828;4.416;2022-12-11T03:57:46;4.10;99.90
19880;DHT22;10102;50.828;4.416;2022-12-11T04:00:16;4.10;99.90
19880;DHT22;10102;50.828;4.416;2022-12-11T04:02:42;4.10;99.90
19880;DHT22;10102;50.828;4.416;2022-12-11T04:05:09;4.00;99.90
19880;DHT22;10102;50.828;4.416;2022-12-11T04:07:35;3.90;99.90
19880;DHT22;10102;50.828;4.416;2022-12-11T04:10:02;3.90;99.90
19880;DHT22;10102;50.828;4.416;2022-12-11T04:12:28;3.70;99.90
19880;DHT22;10102;50.828;4.416;2022-12-11T04:17:27;3.80;99.90
19880;DHT22;10102;50.828;4.416;2022-12-11T04:20:12;3.90;99.90
19880;DHT22;10102;50.828;4.416;2022-12-11T04:22:56;4.00;99.90
19880;DHT22;10102;50.828;4.416;2022-12-11T04:25:40;4.00;99.90
19880;DHT22;10102;50.828;4.416;2022-12-11T04:28:06;4.00;99.90
19880;DHT22;10102;50.828;4.416;2022-12-11T04:30:32;4.10;99.90
19880;DHT22;10102;50.828;4.416;2022-12-11T04:32:58;4.00;99.90
19880;DHT22;10102;50.828;4.416;2022-12-11T04:35:23;4.10;99.90
19880;DHT22;10102;50.828;4.416;2022-12-11T04:37:49;4.10;99.90
19880;DHT22;10102;50.828;4.416;2022-12-11T04:40:17;4.20;99.90
19880;DHT22;10102;50.828;4.416;2022-12-11T04:42:43;4.10;99.90
19880;DHT22;10102;50.828;4.416;2022-12-11T04:45:10;4.30;99.90
19880;DHT22;10102;50.828;4.416;2022-12-11T04:47:37;4.30;99.90
19880;DHT22;10102;50.828;4.416;2022-12-11T04:50:05;4.30;99.90
19880;DHT22;10102;50.828;4.416;2022-12-11T04:52:31;4.30;99.90
19880;DHT22;10102;50.828;4.416;2022-12-11T04:57:22;3.90;99.90
19880;DHT22;10102;50.828;4.416;2022-12-11T04:59:48;3.90;99.90
19880;DHT22;10102;50.828;4.416;2022-12-11T05:02:14;4.00;99.90
19880;DHT22;10102;50.828;4.416;2022-12-11T05:04:40;4.00;99.90
19880;DHT22;10102;50.828;4.416;2022-12-11T05:07:06;3.80;99.90
19880;DHT22;10102;50.828;4.416;2022-12-11T05:09:34;4.30;99.90
19880;DHT22;10102;50.828;4.416;2022-12-11T05:12:00;3.90;99.90
19880;DHT22;10102;50.828;4.416;2022-12-11T05:14:26;3.90;99.90
19880;DHT22;10102;50.828;4.416;2022-12-11T05:16:52;3.80;99.90
19880;DHT22;10102;50.828;4.416;2022-12-11T05:19:17;4.00;99.90
19880;DHT22;10102;50.828;4.416;2022-12-11T05:21:43;3.80;99.90
19880;DHT22;10102;50.828;4.416;2022-12-11T05:24:09;4.00;99.90
19880;DHT22;10102;50.828;4.416;2022-12-11T05:26:35;4.10;99.90
19880;DHT22;10102;50.828;4.416;2022-12-11T05:29:00;3.60;99.90
19880;DHT22;10102;50.828;4.416;2022-12-11T05:33:53;4.10;99.90
19880;DHT22;10102;50.828;4.416;2022-12-11T05:36:30;3.80;99.90
19880;DHT22;10102;50.828;4.416;2022-12-11T05:38:57;4.00;99.90
19880;DHT22;10102;50.828;4.416;2022-12-11T05:41:27;5.20;99.90
19880;DHT22;10102;50.828;4.416;2022-12-11T05:43:53;4.10;99.90
19880;DHT22;10102;50.828;4.416;2022-12-11T05:46:21;4.60;99.90
19880;DHT22;10102;50.828;4.416;2022-12-11T05:48:50;4.20;99.90
19880;DHT22;10102;50.828;4.416;2022-12-11T05:51:16;4.30;99.90
19880;DHT22;10102;50.828;4.416;2022-12-11T05:53:43;3.90;99.90
19880;DHT22;10102;50.828;4.416;2022-12-11T05:56:15;3.90;99.90
19880;DHT22;10102;50.828;4.416;2022-12-11T05:58:42;3.80;99.90
19880;DHT22;10102;50.828;4.416;2022-12-11T06:01:10;4.00;99.90
19880;DHT22;10102;50.828;4.416;2022-12-11T06:03:36;4.00;99.90
19880;DHT22;10102;50.828;4.416;2022-12-11T06:06:03;4.00;99.90
19880;DHT22;10102;50.828;4.416;2022-12-11T06:08:29;3.50;99.90
19880;DHT22;10102;50.828;4.416;2022-12-11T06:10:55;4.00;99.90
19880;DHT22;10102;50.828;4.416;2022-12-11T06:13:20;4.10;99.90
19880;DHT22;10102;50.828;4.416;2022-12-11T06:15:46;4.00;99.90
19880;DHT22;10102;50.828;4.416;2022-12-11T06:18:12;3.70;99.90
19880;DHT22;10102;50.828;4.416;2022-12-11T06:23:03;3.80;99.90
19880;DHT22;10102;50.828;4.416;2022-12-11T06:25:29;3.70;99.90
19880;DHT22;10102;50.828;4.416;2022-12-11T06:27:55;3.70;99.90
19880;DHT22;10102;50.828;4.416;2022-12-11T06:30:22;3.80;99.90
19880;DHT22;10102;50.828;4.416;2022-12-11T06:32:48;3.80;99.90
19880;DHT22;10102;50.828;4.416;2022-12-11T06:35:14;3.80;99.90
19880;DHT22;10102;50.828;4.416;2022-12-11T06:37:40;3.80;99.90
19880;DHT22;10102;50.828;4.416;2022-12-11T06:40:07;3.70;99.90
19880;DHT22;10102;50.828;4.416;2022-12-11T06:42:33;3.80;99.90
19880;DHT22;10102;50.828;4.416;2022-12-11T06:44:59;3.90;99.90
19880;DHT22;10102;50.828;4.416;2022-12-11T06:47:26;4.10;99.90
19880;DHT22;10102;50.828;4.416;2022-12-11T06:49:52;3.70;99.90
19880;DHT22;10102;50.828;4.416;2022-12-11T06:52:19;3.60;99.90
19880;DHT22;10102;50.828;4.416;2022-12-11T06:54:44;4.00;99.90
19880;DHT22;10102;50.828;4.416;2022-12-11T06:57:10;3.60;99.90
19880;DHT22;10102;50.828;4.416;2022-12-11T06:59:36;3.60;99.90
19880;DHT22;10102;50.828;4.416;2022-12-11T07:02:02;3.60;99.90
19880;DHT22;10102;50.828;4.416;2022-12-11T07:04:28;3.50;99.90
19880;DHT22;10102;50.828;4.416;2022-12-11T07:06:55;3.50;99.90
19880;DHT22;10102;50.828;4.416;2022-12-11T07:09:22;3.50;99.90
19880;DHT22;10102;50.828;4.416;2022-12-11T07:11:52;3.50;99.90
19880;DHT22;10102;50.828;4.416;2022-12-11T07:14:18;3.80;99.90
19880;DHT22;10102;50.828;4.416;2022-12-11T07:19:11;3.50;99.90
19880;DHT22;10102;50.828;4.416;2022-12-11T07:21:36;3.30;99.90
19880;DHT22;10102;50.828;4.416;2022-12-11T07:26:34;3.20;99.90
19880;DHT22;10102;50.828;4.416;2022-12-11T07:29:03;3.20;99.90
19880;DHT22;10102;50.828;4.416;2022-12-11T07:31:31;3.40;99.90
19880;DHT22;10102;50.828;4.416;2022-12-11T07:34:01;3.30;99.90
19880;DHT22;10102;50.828;4.416;2022-12-11T07:36:28;3.60;99.90
19880;DHT22;10102;50.828;4.416;2022-12-11T07:38:55;3.70;99.90
19880;DHT22;10102;50.828;4.416;2022-12-11T07:41:23;3.50;99.90
19880;DHT22;10102;50.828;4.416;2022-12-11T07:43:49;3.70;99.90
19880;DHT22;10102;50.828;4.416;2022-12-11T07:46:20;3.80;99.90
19880;DHT22;10102;50.828;4.416;2022-12-11T07:48:47;3.60;99.90
19880;DHT22;10102;50.828;4.416;2022-12-11T07:51:18;3.80;99.90
19880;DHT22;10102;50.828;4.416;2022-12-11T07:53:47;3.90;99.90
19880;DHT22;10102;50.828;4.416;2022-12-11T07:56:14;4.00;99.90
19880;DHT22;10102;50.828;4.416;2022-12-11T07:58:40;3.80;99.90
19880;DHT22;10102;50.828;4.416;2022-12-11T08:01:28;4.00;99.90
19880;DHT22;10102;50.828;4.416;2022-12-11T08:03:55;3.80;99.90
19880;DHT22;10102;50.828;4.416;2022-12-11T08:06:28;3.50;99.90
19880;DHT22;10102;50.828;4.416;2022-12-11T08:08:55;3.40;99.90
19880;DHT22;10102;50.828;4.416;2022-12-11T08:11:21;3.30;99.90
19880;DHT22;10102;50.828;4.416;2022-12-11T08:13:53;3.60;99.90
19880;DHT22;10102;50.828;4.416;2022-12-11T08:16:20;3.90;99.90
19880;DHT22;10102;50.828;4.416;2022-12-11T08:18:46;3.80;99.90
19880;DHT22;10102;50.828;4.416;2022-12-11T08:21:20;3.60;99.90
19880;DHT22;10102;50.828;4.416;2022-12-11T08:23:47;3.50;99.90
19880;DHT22;10102;50.828;4.416;2022-12-11T08:26:23;3.50;99.90
19880;DHT22;10102;50.828;4.416;2022-12-11T08:28:49;3.40;99.90
19880;DHT22;10102;50.828;4.416;2022-12-11T08:31:16;3.40;99.90
19880;DHT22;10102;50.828;4.416;2022-12-11T08:33:42;3.50;99.90
19880;DHT22;10102;50.828;4.416;2022-12-11T08:36:11;3.50;99.90
19880;DHT22;10102;50.828;4.416;2022-12-11T08:38:37;3.40;99.90
19880;DHT22;10102;50.828;4.416;2022-12-11T08:41:10;3.70;99.90
19880;DHT22;10102;50.828;4.416;2022-12-11T08:43:36;4.20;99.90
19880;DHT22;10102;50.828;4.416;2022-12-11T08:46:01;3.80;99.90
19880;DHT22;10102;50.828;4.416;2022-12-11T08:48:27;4.60;99.90
19880;DHT22;10102;50.828;4.416;2022-12-11T08:53:19;3.80;99.90
19880;DHT22;10102;50.828;4.416;2022-12-11T08:58:10;3.70;99.90
19880;DHT22;10102;50.828;4.416;2022-12-11T09:00:36;3.60;99.90
19880;DHT22;10102;50.828;4.416;2022-12-11T09:03:02;3.70;99.90
19880;DHT22;10102;50.828;4.416;2022-12-11T09:07:54;4.40;99.90
19880;DHT22;10102;50.828;4.416;2022-12-11T09:10:19;4.10;99.90
19880;DHT22;10102;50.828;4.416;2022-12-11T09:12:45;4.10;99.90
19880;DHT22;10102;50.828;4.416;2022-12-11T09:15:11;4.00;99.90
19880;DHT22;10102;50.828;4.416;2022-12-11T09:20:04;4.10;99.90
19880;DHT22;10102;50.828;4.416;2022-12-11T09:22:31;3.90;99.90
19880;DHT22;10102;50.828;4.416;2022-12-11T09:24:58;3.80;99.90
19880;DHT22;10102;50.828;4.416;2022-12-11T09:27:24;4.00;99.90
19880;DHT22;10102;50.828;4.416;2022-12-11T09:29:49;4.10;99.90
19880;DHT22;10102;50.828;4.416;2022-12-11T09:32:16;3.80;99.90
19880;DHT22;10102;50.828;4.416;2022-12-11T09:34:41;4.00;99.90
19880;DHT22;10102;50.828;4.416;2022-12-11T09:39:33;4.00;99.90
19880;DHT22;10102;50.828;4.416;2022-12-11T09:44:50;3.90;99.90
19880;DHT22;10102;50.828;4.416;2022-12-11T09:47:40;3.90;99.90
19880;DHT22;10102;50.828;4.416;2022-12-11T09:55:23;3.40;99.90
19880;DHT22;10102;50.828;4.416;2022-12-11T10:01:20;3.90;99.90
19880;DHT22;10102;50.828;4.416;2022-12-11T10:04:29;4.00;99.90
19880;DHT22;10102;50.828;4.416;2022-12-11T10:12:53;3.80;99.90
19880;DHT22;10102;50.828;4.416;2022-12-11T10:15:42;3.80;99.90
19880;DHT22;10102;50.828;4.416;2022-12-11T10:18:15;3.80;99.90
19880;DHT22;10102;50.828;4.416;2022-12-11T10:20:42;4.30;99.90
19880;DHT22;10102;50.828;4.416;2022-12-11T10:23:17;4.10;99.90
19880;DHT22;10102;50.828;4.416;2022-12-11T10:26:08;4.00;99.90
19880;DHT22;10102;50.828;4.416;2022-12-11T10:28:35;4.00;99.90
19880;DHT22;10102;50.828;4.416;2022-12-11T10:31:16;4.40;99.90
19880;DHT22;10102;50.828;4.416;2022-12-11T10:36:36;4.00;99.90
19880;DHT22;10102;50.828;4.416;2022-12-11T10:39:09;4.10;99.90
19880;DHT22;10102;50.828;4.416;2022-12-11T10:41:40;4.20;99.90
19880;DHT22;10102;50.828;4.416;2022-12-11T10:44:27;4.80;99.90
19880;DHT22;10102;50.828;4.416;2022-12-11T10:49:37;4.40;99.90
19880;DHT22;10102;50.828;4.416;2022-12-11T10:52:12;4.30;99.90
19880;DHT22;10102;50.828;4.416;2022-12-11T10:54:46;4.70;99.90
19880;DHT22;10102;50.828;4.416;2022-12-11T10:57:26;4.70;99.90
19880;DHT22;10102;50.828;4.416;2022-12-11T10:59:54;4.80;99.90
19880;DHT22;10102;50.828;4.416;2022-12-11T11:04:59;5.10;99.90
19880;DHT22;10102;50.828;4.416;2022-12-11T11:07:28;4.80;99.90
19880;DHT22;10102;50.828;4.416;2022-12-11T11:12:44;7.50;99.90
19880;DHT22;10102;50.828;4.416;2022-12-11T11:15:18;8.00;99.90
19880;DHT22;10102;50.828;4.416;2022-12-11T11:17:49;8.50;99.90
19880;DHT22;10102;50.828;4.416;2022-12-11T11:20:18;8.20;99.90
19880;DHT22;10102;50.828;4.416;2022-12-11T11:22:50;8.70;99.90
19880;DHT22;10102;50.828;4.416;2022-12-11T11:25:20;8.00;99.90
19880;DHT22;10102;50.828;4.416;2022-12-11T11:27:50;7.50;99.90
19880;DHT22;10102;50.828;4.416;2022-12-11T11:30:38;7.50;99.90
19880;DHT22;10102;50.828;4.416;2022-12-11T11:33:14;6.90;99.90
19880;DHT22;10102;50.828;4.416;2022-12-11T11:35:55;7.20;99.90
19880;DHT22;10102;50.828;4.416;2022-12-11T11:38:25;7.30;99.90
19880;DHT22;10102;50.828;4.416;2022-12-11T11:51:24;12.30;99.90
19880;DHT22;10102;50.828;4.416;2022-12-11T11:53:54;12.30;99.90
19880;DHT22;10102;50.828;4.416;2022-12-11T11:56:30;10.10;99.90
19880;DHT22;10102;50.828;4.416;2022-12-11T12:01:41;11.00;99.90
19880;DHT22;10102;50.828;4.416;2022-12-11T12:04:08;11.70;99.90
19880;DHT22;10102;50.828;4.416;2022-12-11T12:09:51;11.10;99.90
19880;DHT22;10102;50.828;4.416;2022-12-11T12:17:55;7.90;99.90
19880;DHT22;10102;50.828;4.416;2022-12-11T12:23:29;6.50;99.90
19880;DHT22;10102;50.828;4.416;2022-12-11T12:26:08;6.10;99.90
19880;DHT22;10102;50.828;4.416;2022-12-11T12:44:45;5.40;99.90
19880;DHT22;10102;50.828;4.416;2022-12-11T12:47:16;5.40;99.90
19880;DHT22;10102;50.828;4.416;2022-12-11T12:49:47;5.10;99.90
19880;DHT22;10102;50.828;4.416;2022-12-11T12:52:23;5.20;99.90
19880;DHT22;10102;50.828;4.416;2022-12-11T12:54:54;5.30;99.90
19880;DHT22;10102;50.828;4.416;2022-12-11T12:57:57;5.40;99.90
19880;DHT22;10102;50.828;4.416;2022-12-11T13:00:42;5.20;99.90
19880;DHT22;10102;50.828;4.416;2022-12-11T13:03:26;4.90;99.90
19880;DHT22;10102;50.828;4.416;2022-12-11T13:06:12;5.00;99.90
19880;DHT22;10102;50.828;4.416;2022-12-11T13:08:45;4.90;99.90
19880;DHT22;10102;50.828;4.416;2022-12-11T13:11:15;4.90;99.90
19880;DHT22;10102;50.828;4.416;2022-12-11T13:13:47;4.90;99.90
19880;DHT22;10102;50.828;4.416;2022-12-11T13:18:44;5.10;99.90
19880;DHT22;10102;50.828;4.416;2022-12-11T13:21:34;5.20;99.90
19880;DHT22;10102;50.828;4.416;2022-12-11T13:26:38;5.00;99.90
19880;DHT22;10102;50.828;4.416;2022-12-11T13:29:05;6.10;99.90
19880;DHT22;10102;50.828;4.416;2022-12-11T13:31:38;4.80;99.90
19880;DHT22;10102;50.828;4.416;2022-12-11T13:34:16;4.50;99.90
19880;DHT22;10102;50.828;4.416;2022-12-11T13:36:50;4.60;99.90
19880;DHT22;10102;50.828;4.416;2022-12-11T13:39:29;5.80;99.90
19880;DHT22;10102;50.828;4.416;2022-12-11T13:42:04;4.10;99.90
19880;DHT22;10102;50.828;4.416;2022-12-11T13:44:35;4.00;99.90
19880;DHT22;10102;50.828;4.416;2022-12-11T13:47:04;5.10;99.90
19880;DHT22;10102;50.828;4.416;2022-12-11T13:49:36;4.20;99.90
19880;DHT22;10102;50.828;4.416;2022-12-11T13:52:03;4.30;99.90
19880;DHT22;10102;50.828;4.416;2022-12-11T13:54:31;4.60;99.90
19880;DHT22;10102;50.828;4.416;2022-12-11T13:56:58;4.40;99.90
19880;DHT22;10102;50.828;4.416;2022-12-11T13:59:27;4.40;99.90
19880;DHT22;10102;50.828;4.416;2022-12-11T14:01:57;4.50;99.90
19880;DHT22;10102;50.828;4.416;2022-12-11T14:04:24;4.90;99.90
19880;DHT22;10102;50.828;4.416;2022-12-11T14:06:53;4.50;99.90
19880;DHT22;10102;50.828;4.416;2022-12-11T14:09:22;4.60;99.90
19880;DHT22;10102;50.828;4.416;2022-12-11T14:11:49;4.70;99.90
19880;DHT22;10102;50.828;4.416;2022-12-11T14:14:20;4.70;99.90
19880;DHT22;10102;50.828;4.416;2022-12-11T14:16:50;4.60;99.90
19880;DHT22;10102;50.828;4.416;2022-12-11T14:19:21;4.60;99.90
19880;DHT22;10102;50.828;4.416;2022-12-11T14:22:20;4.50;99.90
19880;DHT22;10102;50.828;4.416;2022-12-11T14:24:51;4.50;99.90
19880;DHT22;10102;50.828;4.416;2022-12-11T14:27:17;4.30;99.90
19880;DHT22;10102;50.828;4.416;2022-12-11T14:29:43;4.30;99.90
19880;DHT22;10102;50.828;4.416;2022-12-11T14:32:29;4.60;99.90
19880;DHT22;10102;50.828;4.416;2022-12-11T14:34:56;4.70;99.90
19880;DHT22;10102;50.828;4.416;2022-12-11T14:37:22;4.70;99.90
19880;DHT22;10102;50.828;4.416;2022-12-11T14:42:19;4.70;99.90
19880;DHT22;10102;50.828;4.416;2022-12-11T14:45:03;4.70;99.90
19880;DHT22;10102;50.828;4.416;2022-12-11T14:47:36;4.70;99.90
19880;DHT22;10102;50.828;4.416;2022-12-11T14:50:31;4.80;99.90
19880;DHT22;10102;50.828;4.416;2022-12-11T14:53:02;5.20;99.90
19880;DHT22;10102;50.828;4.416;2022-12-11T14:55:34;4.80;99.90
19880;DHT22;10102;50.828;4.416;2022-12-11T14:58:24;4.70;99.90
19880;DHT22;10102;50.828;4.416;2022-12-11T15:01:00;4.70;99.90
19880;DHT22;10102;50.828;4.416;2022-12-11T15:03:37;4.80;99.90
19880;DHT22;10102;50.828;4.416;2022-12-11T15:06:28;5.00;99.90
19880;DHT22;10102;50.828;4.416;2022-12-11T15:08:54;4.90;99.90
19880;DHT22;10102;50.828;4.416;2022-12-11T15:11:20;5.00;99.90
19880;DHT22;10102;50.828;4.416;2022-12-11T15:13:56;5.10;99.90
19880;DHT22;10102;50.828;4.416;2022-12-11T15:16:25;4.90;99.90
19880;DHT22;10102;50.828;4.416;2022-12-11T15:18:53;4.80;99.90
19880;DHT22;10102;50.828;4.416;2022-12-11T15:21:36;4.90;99.90
19880;DHT22;10102;50.828;4.416;2022-12-11T15:24:03;5.10;99.90
19880;DHT22;10102;50.828;4.416;2022-12-11T15:26:35;5.00;99.90
19880;DHT22;10102;50.828;4.416;2022-12-11T15:29:48;5.10;99.90
19880;DHT22;10102;50.828;4.416;2022-12-11T15:34:54;4.90;99.90
19880;DHT22;10102;50.828;4.416;2022-12-11T15:37:34;5.00;99.90
19880;DHT22;10102;50.828;4.416;2022-12-11T15:40:02;5.10;99.90
19880;DHT22;10102;50.828;4.416;2022-12-11T15:42:33;5.00;99.90
19880;DHT22;10102;50.828;4.416;2022-12-11T15:45:00;4.80;99.90
19880;DHT22;10102;50.828;4.416;2022-12-11T15:47:28;4.90;99.90
19880;DHT22;10102;50.828;4.416;2022-12-11T15:50:01;4.90;99.90
19880;DHT22;10102;50.828;4.416;2022-12-11T15:52:31;4.50;99.90
19880;DHT22;10102;50.828;4.416;2022-12-11T15:54:59;4.90;99.90
19880;DHT22;10102;50.828;4.416;2022-12-11T15:57:24;5.00;99.90
19880;DHT22;10102;50.828;4.416;2022-12-11T15:59:52;4.70;99.90
19880;DHT22;10102;50.828;4.416;2022-12-11T16:04:44;4.70;99.90
19880;DHT22;10102;50.828;4.416;2022-12-11T16:07:21;4.70;99.90
19880;DHT22;10102;50.828;4.416;2022-12-11T16:09:47;4.70;99.90
19880;DHT22;10102;50.828;4.416;2022-12-11T16:12:13;4.70;99.90
19880;DHT22;10102;50.828;4.416;2022-12-11T16:14:40;4.10;99.90
19880;DHT22;10102;50.828;4.416;2022-12-11T16:17:07;4.70;99.90
19880;DHT22;10102;50.828;4.416;2022-12-11T16:19:33;4.90;99.90
19880;DHT22;10102;50.828;4.416;2022-12-11T16:21:59;5.00;99.90
19880;DHT22;10102;50.828;4.416;2022-12-11T16:24:25;4.90;99.90
19880;DHT22;10102;50.828;4.416;2022-12-11T16:26:51;5.30;99.90
19880;DHT22;10102;50.828;4.416;2022-12-11T16:29:17;4.90;99.90
19880;DHT22;10102;50.828;4.416;2022-12-11T16:34:08;4.90;99.90
19880;DHT22;10102;50.828;4.416;2022-12-11T16:36:34;5.00;99.90
19880;DHT22;10102;50.828;4.416;2022-12-11T16:39:00;4.90;99.90
19880;DHT22;10102;50.828;4.416;2022-12-11T16:41:25;5.00;99.90
19880;DHT22;10102;50.828;4.416;2022-12-11T16:43:52;5.10;99.90
19880;DHT22;10102;50.828;4.416;2022-12-11T16:46:20;5.00;99.90
19880;DHT22;10102;50.828;4.416;2022-12-11T16:48:46;4.80;99.90
19880;DHT22;10102;50.828;4.416;2022-12-11T16:53:38;5.00;99.90
19880;DHT22;10102;50.828;4.416;2022-12-11T16:56:05;5.00;99.90
19880;DHT22;10102;50.828;4.416;2022-12-11T16:58:31;5.00;99.90
19880;DHT22;10102;50.828;4.416;2022-12-11T17:00:57;4.90;99.90
19880;DHT22;10102;50.828;4.416;2022-12-11T17:03:29;4.80;99.90
19880;DHT22;10102;50.828;4.416;2022-12-11T17:05:56;4.50;99.90
19880;DHT22;10102;50.828;4.416;2022-12-11T17:08:23;4.50;99.90
19880;DHT22;10102;50.828;4.416;2022-12-11T17:10:49;4.50;99.90
19880;DHT22;10102;50.828;4.416;2022-12-11T17:13:15;4.40;99.90
19880;DHT22;10102;50.828;4.416;2022-12-11T17:15:42;4.30;99.90
19880;DHT22;10102;50.828;4.416;2022-12-11T17:18:08;4.40;99.90
19880;DHT22;10102;50.828;4.416;2022-12-11T17:20:38;4.20;99.90
19880;DHT22;10102;50.828;4.416;2022-12-11T17:27:55;4.10;99.90
19880;DHT22;10102;50.828;4.416;2022-12-11T17:30:21;4.10;99.90
19880;DHT22;10102;50.828;4.416;2022-12-11T17:32:47;4.00;99.90
19880;DHT22;10102;50.828;4.416;2022-12-11T17:35:13;4.00;99.90
19880;DHT22;10102;50.828;4.416;2022-12-11T17:37:39;3.80;99.90
19880;DHT22;10102;50.828;4.416;2022-12-11T17:40:05;2.80;99.90
19880;DHT22;10102;50.828;4.416;2022-12-11T17:42:31;3.70;99.90
19880;DHT22;10102;50.828;4.416;2022-12-11T17:44:59;3.60;99.90
19880;DHT22;10102;50.828;4.416;2022-12-11T17:47:24;3.60;99.90
19880;DHT22;10102;50.828;4.416;2022-12-11T17:49:50;3.60;99.90
19880;DHT22;10102;50.828;4.416;2022-12-11T17:52:15;3.60;99.90
19880;DHT22;10102;50.828;4.416;2022-12-11T17:54:41;3.60;99.90
19880;DHT22;10102;50.828;4.416;2022-12-11T17:57:07;3.70;99.90
19880;DHT22;10102;50.828;4.416;2022-12-11T17:59:32;3.70;99.90
19880;DHT22;10102;50.828;4.416;2022-12-11T18:01:58;3.60;99.90
19880;DHT22;10102;50.828;4.416;2022-12-11T18:04:24;3.40;99.90
19880;DHT22;10102;50.828;4.416;2022-12-11T18:06:49;3.40;99.90
19880;DHT22;10102;50.828;4.416;2022-12-11T18:09:16;3.70;99.90
19880;DHT22;10102;50.828;4.416;2022-12-11T18:11:42;3.60;99.90
19880;DHT22;10102;50.828;4.416;2022-12-11T18:14:07;3.60;99.90
19880;DHT22;10102;50.828;4.416;2022-12-11T18:16:36;4.00;99.90
19880;DHT22;10102;50.828;4.416;2022-12-11T18:19:05;3.40;99.90
19880;DHT22;10102;50.828;4.416;2022-12-11T18:21:35;3.50;99.90